sensor_id;sensor_type;location;lat;lon;timestamp;pressure;altitude;pressure_sealevel;temperature;humidity
53041;BME280;39326;42.650;23.248;2023-02-12T00:01:14;93419.38;;;-0.49;37.80
53041;BME280;39326;42.650;23.248;2023-02-12T00:03:40;93437.94;;;-0.59;38.26
53041;BME280;39326;42.650;23.248;2023-02-12T00:06:06;93439.38;;;-0.53;38.73
53041;BME280;39326;42.650;23.248;2023-02-12T00:08:32;93439.47;;;-0.58;38.70
53041;BME280;39326;42.650;23.248;2023-02-12T00:10:58;93427.44;;;-0.46;38.39
53041;BME280;39326;42.650;23.248;2023-02-12T00:13:23;93448.31;;;-0.54;38.26
53041;BME280;39326;42.650;23.248;2023-02-12T00:15:48;93436.25;;;-0.69;39.24
53041;BME280;39326;42.650;23.248;2023-02-12T00:18:14;93438.56;;;-0.81;39.92
53041;BME280;39326;42.650;23.248;2023-02-12T00:20:40;93434.81;;;-0.61;39.03
53041;BME280;39326;42.650;23.248;2023-02-12T00:23:05;93430.84;;;-0.59;38.72
53041;BME280;39326;42.650;23.248;2023-02-12T00:25:32;93432.28;;;-0.66;39.45
53041;BME280;39326;42.650;23.248;2023-02-12T00:27:57;93431.69;;;-0.63;39.50
53041;BME280;39326;42.650;23.248;2023-02-12T00:30:23;93430.16;;;-0.64;39.43
53041;BME280;39326;42.650;23.248;2023-02-12T00:32:48;93409.38;;;-0.75;39.82
53041;BME280;39326;42.650;23.248;2023-02-12T00:35:14;93422.78;;;-0.49;38.12
53041;BME280;39326;42.650;23.248;2023-02-12T00:37:40;93418.91;;;-0.51;38.50
53041;BME280;39326;42.650;23.248;2023-02-12T00:40:06;93424.91;;;-0.64;39.61
53041;BME280;39326;42.650;23.248;2023-02-12T00:42:31;93407.75;;;-0.57;39.50
53041;BME280;39326;42.650;23.248;2023-02-12T00:44:57;93402.03;;;-0.59;39.59
53041;BME280;39326;42.650;23.248;2023-02-12T00:47:22;93393.97;;;-0.62;39.72
53041;BME280;39326;42.650;23.248;2023-02-12T00:49:48;93392.41;;;-0.63;40.32
53041;BME280;39326;42.650;23.248;2023-02-12T00:52:13;93385.81;;;-0.61;39.47
53041;BME280;39326;42.650;23.248;2023-02-12T00:54:39;93393.78;;;-0.66;39.99
53041;BME280;39326;42.650;23.248;2023-02-12T00:57:04;93386.88;;;-0.62;39.54
53041;BME280;39326;42.650;23.248;2023-02-12T00:59:29;93385.81;;;-0.61;39.62
53041;BME280;39326;42.650;23.248;2023-02-12T01:01:55;93382.91;;;-0.59;39.66
53041;BME280;39326;42.650;23.248;2023-02-12T01:04:21;93374.56;;;-0.61;40.20
53041;BME280;39326;42.650;23.248;2023-02-12T01:06:47;93374.09;;;-0.77;40.61
53041;BME280;39326;42.650;23.248;2023-02-12T01:09:12;93374.69;;;-0.66;40.46
53041;BME280;39326;42.650;23.248;2023-02-12T01:11:38;93361.41;;;-0.84;40.51
53041;BME280;39326;42.650;23.248;2023-02-12T01:14:04;93364.31;;;-0.72;39.87
53041;BME280;39326;42.650;23.248;2023-02-12T01:16:30;93381.84;;;-0.58;39.87
53041;BME280;39326;42.650;23.248;2023-02-12T01:18:58;93374.06;;;-0.50;39.94
53041;BME280;39326;42.650;23.248;2023-02-12T01:21:26;93365.53;;;-0.41;39.08
53041;BME280;39326;42.650;23.248;2023-02-12T01:23:53;93359.44;;;-0.51;40.17
53041;BME280;39326;42.650;23.248;2023-02-12T01:26:20;93384.16;;;-0.43;40.34
53041;BME280;39326;42.650;23.248;2023-02-12T01:28:49;93387.28;;;-0.41;40.96
53041;BME280;39326;42.650;23.248;2023-02-12T01:31:18;93377.84;;;-0.56;41.52
53041;BME280;39326;42.650;23.248;2023-02-12T01:33:49;93397.34;;;-0.62;41.22
53041;BME280;39326;42.650;23.248;2023-02-12T01:36:16;93393.31;;;-0.54;41.14
53041;BME280;39326;42.650;23.248;2023-02-12T01:38:41;93390.56;;;-0.63;41.49
53041;BME280;39326;42.650;23.248;2023-02-12T01:41:18;93386.03;;;-0.71;42.12
53041;BME280;39326;42.650;23.248;2023-02-12T01:43:44;93383.97;;;-0.74;42.15
53041;BME280;39326;42.650;23.248;2023-02-12T01:46:13;93380.59;;;-0.88;43.26
53041;BME280;39326;42.650;23.248;2023-02-12T01:48:42;93381.94;;;-0.77;42.62
53041;BME280;39326;42.650;23.248;2023-02-12T01:51:10;93375.94;;;-0.78;42.88
53041;BME280;39326;42.650;23.248;2023-02-12T01:53:43;93360.53;;;-0.79;43.17
53041;BME280;39326;42.650;23.248;2023-02-12T01:56:11;93352.16;;;-0.67;42.75
53041;BME280;39326;42.650;23.248;2023-02-12T01:58:40;93353.81;;;-0.72;42.71
53041;BME280;39326;42.650;23.248;2023-02-12T02:01:10;93356.44;;;-0.72;43.13
53041;BME280;39326;42.650;23.248;2023-02-12T02:03:38;93356.63;;;-0.68;42.89
53041;BME280;39326;42.650;23.248;2023-02-12T02:06:13;93368.56;;;-0.76;42.92
53041;BME280;39326;42.650;23.248;2023-02-12T02:08:40;93364.00;;;-0.70;43.48
53041;BME280;39326;42.650;23.248;2023-02-12T02:11:06;93356.22;;;-0.61;43.65
53041;BME280;39326;42.650;23.248;2023-02-12T02:13:52;93358.16;;;-0.67;43.91
53041;BME280;39326;42.650;23.248;2023-02-12T02:16:41;93361.28;;;-0.65;44.55
53041;BME280;39326;42.650;23.248;2023-02-12T02:21:56;93359.06;;;-0.72;44.75
53041;BME280;39326;42.650;23.248;2023-02-12T02:33:06;93362.34;;;-0.93;46.62
53041;BME280;39326;42.650;23.248;2023-02-12T02:35:39;93347.31;;;-0.88;46.25
53041;BME280;39326;42.650;23.248;2023-02-12T02:40:55;93342.94;;;-0.92;46.90
53041;BME280;39326;42.650;23.248;2023-02-12T02:43:34;93347.03;;;-0.73;46.59
53041;BME280;39326;42.650;23.248;2023-02-12T02:46:15;93361.00;;;-0.63;46.91
53041;BME280;39326;42.650;23.248;2023-02-12T02:49:03;93356.25;;;-0.75;47.34
53041;BME280;39326;42.650;23.248;2023-02-12T02:51:33;93355.84;;;-0.68;47.14
53041;BME280;39326;42.650;23.248;2023-02-12T02:54:12;93364.84;;;-0.61;47.03
53041;BME280;39326;42.650;23.248;2023-02-12T02:56:41;93338.97;;;-0.62;47.03
53041;BME280;39326;42.650;23.248;2023-02-12T02:59:15;93360.03;;;-0.81;47.82
53041;BME280;39326;42.650;23.248;2023-02-12T03:01:46;93355.84;;;-0.82;48.38
53041;BME280;39326;42.650;23.248;2023-02-12T03:04:22;93347.69;;;-0.67;47.67
53041;BME280;39326;42.650;23.248;2023-02-12T03:06:57;93357.31;;;-0.62;49.34
53041;BME280;39326;42.650;23.248;2023-02-12T03:09:35;93352.16;;;-0.67;48.05
53041;BME280;39326;42.650;23.248;2023-02-12T03:12:07;93357.81;;;-0.60;48.35
53041;BME280;39326;42.650;23.248;2023-02-12T03:14:37;93353.41;;;-0.51;47.92
53041;BME280;39326;42.650;23.248;2023-02-12T03:17:08;93358.28;;;-0.58;48.09
53041;BME280;39326;42.650;23.248;2023-02-12T03:19:41;93353.78;;;-0.44;48.16
53041;BME280;39326;42.650;23.248;2023-02-12T03:22:16;93348.06;;;-0.46;48.75
53041;BME280;39326;42.650;23.248;2023-02-12T03:24:59;93356.88;;;-0.28;47.86
53041;BME280;39326;42.650;23.248;2023-02-12T03:27:31;93351.13;;;-0.16;46.77
53041;BME280;39326;42.650;23.248;2023-02-12T03:29:59;93347.84;;;-0.22;47.32
53041;BME280;39326;42.650;23.248;2023-02-12T03:32:57;93349.13;;;-0.33;47.96
53041;BME280;39326;42.650;23.248;2023-02-12T03:35:34;93352.16;;;-0.40;48.03
53041;BME280;39326;42.650;23.248;2023-02-12T03:38:25;93344.75;;;-0.38;48.61
53041;BME280;39326;42.650;23.248;2023-02-12T03:41:08;93339.59;;;-0.29;47.75
53041;BME280;39326;42.650;23.248;2023-02-12T03:49:02;93347.69;;;-0.67;48.05
53041;BME280;39326;42.650;23.248;2023-02-12T03:51:38;93345.66;;;-0.56;48.53
53041;BME280;39326;42.650;23.248;2023-02-12T03:54:07;93339.06;;;-0.54;48.78
53041;BME280;39326;42.650;23.248;2023-02-12T03:56:41;93341.00;;;-0.46;48.40
53041;BME280;39326;42.650;23.248;2023-02-12T03:59:08;93350.88;;;-0.42;48.02
53041;BME280;39326;42.650;23.248;2023-02-12T04:01:34;93348.75;;;-0.40;47.54
53041;BME280;39326;42.650;23.248;2023-02-12T04:04:06;93361.19;;;-0.46;47.40
53041;BME280;39326;42.650;23.248;2023-02-12T04:06:31;93341.88;;;-0.50;47.86
53041;BME280;39326;42.650;23.248;2023-02-12T04:09:01;93338.34;;;-0.32;47.08
53041;BME280;39326;42.650;23.248;2023-02-12T04:17:11;93340.75;;;-0.22;47.08
53041;BME280;39326;42.650;23.248;2023-02-12T04:22:26;93344.06;;;-0.30;46.80
53041;BME280;39326;42.650;23.248;2023-02-12T04:25:32;93347.66;;;-0.26;46.64
53041;BME280;39326;42.650;23.248;2023-02-12T04:30:52;93339.72;;;-0.34;47.02
53041;BME280;39326;42.650;23.248;2023-02-12T04:33:21;93363.06;;;-0.24;46.88
53041;BME280;39326;42.650;23.248;2023-02-12T04:35:54;93378.53;;;-0.23;47.64
53041;BME280;39326;42.650;23.248;2023-02-12T04:38:29;93362.59;;;-0.26;47.74
53041;BME280;39326;42.650;23.248;2023-02-12T04:40:57;93365.88;;;-0.21;46.99
53041;BME280;39326;42.650;23.248;2023-02-12T04:43:32;93379.75;;;-0.20;47.33
53041;BME280;39326;42.650;23.248;2023-02-12T04:46:02;93371.03;;;-0.15;46.56
53041;BME280;39326;42.650;23.248;2023-02-12T04:48:28;93374.13;;;-0.13;46.69
53041;BME280;39326;42.650;23.248;2023-02-12T04:50:53;93385.56;;;-0.09;46.89
53041;BME280;39326;42.650;23.248;2023-02-12T04:53:19;93385.19;;;-0.30;47.73
53041;BME280;39326;42.650;23.248;2023-02-12T04:55:44;93381.97;;;-0.13;46.49
53041;BME280;39326;42.650;23.248;2023-02-12T04:58:11;93392.88;;;-0.20;46.90
53041;BME280;39326;42.650;23.248;2023-02-12T05:00:37;93396.53;;;-0.07;45.55
53041;BME280;39326;42.650;23.248;2023-02-12T05:03:02;93400.13;;;-0.03;45.72
53041;BME280;39326;42.650;23.248;2023-02-12T05:05:28;93401.03;;;-0.22;46.61
53041;BME280;39326;42.650;23.248;2023-02-12T05:07:53;93397.00;;;-0.05;46.10
53041;BME280;39326;42.650;23.248;2023-02-12T05:10:18;93400.69;;;-0.06;45.98
53041;BME280;39326;42.650;23.248;2023-02-12T05:12:44;93403.69;;;-0.35;46.42
53041;BME280;39326;42.650;23.248;2023-02-12T05:15:10;93413.94;;;-0.39;46.81
53041;BME280;39326;42.650;23.248;2023-02-12T05:17:35;93416.09;;;-0.41;46.76
53041;BME280;39326;42.650;23.248;2023-02-12T05:20:01;93426.19;;;-0.34;47.36
53041;BME280;39326;42.650;23.248;2023-02-12T05:22:27;93431.91;;;-0.46;49.23
53041;BME280;39326;42.650;23.248;2023-02-12T05:24:52;93433.63;;;-0.69;51.38
53041;BME280;39326;42.650;23.248;2023-02-12T05:27:17;93439.94;;;-0.84;51.30
53041;BME280;39326;42.650;23.248;2023-02-12T05:29:43;93438.06;;;-0.97;51.75
53041;BME280;39326;42.650;23.248;2023-02-12T05:32:08;93435.72;;;-0.99;52.16
53041;BME280;39326;42.650;23.248;2023-02-12T05:34:34;93438.56;;;-0.95;52.16
53041;BME280;39326;42.650;23.248;2023-02-12T05:36:59;93449.91;;;-0.86;52.97
53041;BME280;39326;42.650;23.248;2023-02-12T05:39:25;93437.69;;;-0.90;52.60
53041;BME280;39326;42.650;23.248;2023-02-12T05:41:50;93443.13;;;-0.87;52.36
53041;BME280;39326;42.650;23.248;2023-02-12T05:44:16;93450.03;;;-0.77;52.29
53041;BME280;39326;42.650;23.248;2023-02-12T05:46:41;93439.63;;;-0.96;53.81
53041;BME280;39326;42.650;23.248;2023-02-12T05:49:08;93447.38;;;-0.91;53.84
53041;BME280;39326;42.650;23.248;2023-02-12T05:51:34;93455.50;;;-0.92;54.52
53041;BME280;39326;42.650;23.248;2023-02-12T05:54:02;93467.22;;;-1.36;58.69
53041;BME280;39326;42.650;23.248;2023-02-12T05:56:30;93457.84;;;-1.56;59.65
53041;BME280;39326;42.650;23.248;2023-02-12T05:59:04;93468.44;;;-1.47;59.19
53041;BME280;39326;42.650;23.248;2023-02-12T06:01:41;93466.53;;;-1.42;60.42
53041;BME280;39326;42.650;23.248;2023-02-12T06:04:12;93458.88;;;-1.38;59.49
53041;BME280;39326;42.650;23.248;2023-02-12T06:06:37;93463.75;;;-1.32;59.79
53041;BME280;39326;42.650;23.248;2023-02-12T06:09:07;93475.88;;;-1.55;62.54
53041;BME280;39326;42.650;23.248;2023-02-12T06:11:32;93469.00;;;-1.50;62.80
53041;BME280;39326;42.650;23.248;2023-02-12T06:14:01;93472.59;;;-1.46;62.61
53041;BME280;39326;42.650;23.248;2023-02-12T06:16:27;93452.13;;;-1.26;62.02
53041;BME280;39326;42.650;23.248;2023-02-12T06:18:54;93459.03;;;-1.30;63.34
53041;BME280;39326;42.650;23.248;2023-02-12T06:21:21;93456.28;;;-1.57;64.85
53041;BME280;39326;42.650;23.248;2023-02-12T06:23:47;93464.19;;;-1.62;65.18
53041;BME280;39326;42.650;23.248;2023-02-12T06:26:13;93462.22;;;-1.51;64.83
53041;BME280;39326;42.650;23.248;2023-02-12T06:28:39;93465.59;;;-1.51;65.63
53041;BME280;39326;42.650;23.248;2023-02-12T06:31:05;93457.84;;;-1.56;68.23
53041;BME280;39326;42.650;23.248;2023-02-12T06:33:39;93466.38;;;-1.50;67.77
53041;BME280;39326;42.650;23.248;2023-02-12T06:36:05;93452.66;;;-1.42;67.27
53041;BME280;39326;42.650;23.248;2023-02-12T06:38:33;93447.63;;;-1.39;67.75
53041;BME280;39326;42.650;23.248;2023-02-12T06:41:01;93455.13;;;-1.32;67.08
53041;BME280;39326;42.650;23.248;2023-02-12T06:43:26;93456.47;;;-1.35;68.77
53041;BME280;39326;42.650;23.248;2023-02-12T06:45:52;93459.22;;;-1.26;67.39
53041;BME280;39326;42.650;23.248;2023-02-12T06:48:17;93463.09;;;-1.23;67.60
53041;BME280;39326;42.650;23.248;2023-02-12T06:50:43;93446.91;;;-1.26;67.59
53041;BME280;39326;42.650;23.248;2023-02-12T06:53:08;93461.81;;;-1.26;67.16
53041;BME280;39326;42.650;23.248;2023-02-12T06:55:34;93442.84;;;-1.18;65.87
53041;BME280;39326;42.650;23.248;2023-02-12T06:57:59;93467.31;;;-1.09;66.15
53041;BME280;39326;42.650;23.248;2023-02-12T07:00:25;93463.66;;;-1.27;66.72
53041;BME280;39326;42.650;23.248;2023-02-12T07:02:54;93464.22;;;-1.11;65.65
53041;BME280;39326;42.650;23.248;2023-02-12T07:05:21;93459.75;;;-1.10;65.96
53041;BME280;39326;42.650;23.248;2023-02-12T07:07:47;93458.41;;;-1.08;65.57
53041;BME280;39326;42.650;23.248;2023-02-12T07:10:12;93459.63;;;-1.19;66.82
53041;BME280;39326;42.650;23.248;2023-02-12T07:12:38;93444.44;;;-1.17;65.25
53041;BME280;39326;42.650;23.248;2023-02-12T07:15:03;93447.94;;;-1.08;65.52
53041;BME280;39326;42.650;23.248;2023-02-12T07:17:29;93446.25;;;-0.85;64.60
53041;BME280;39326;42.650;23.248;2023-02-12T07:19:55;93445.72;;;-0.87;64.91
53041;BME280;39326;42.650;23.248;2023-02-12T07:22:21;93446.03;;;-0.75;64.22
53041;BME280;39326;42.650;23.248;2023-02-12T07:24:46;93454.09;;;-0.71;64.62
53041;BME280;39326;42.650;23.248;2023-02-12T07:27:12;93459.50;;;-0.81;65.20
53041;BME280;39326;42.650;23.248;2023-02-12T07:29:38;93451.44;;;-0.99;66.19
53041;BME280;39326;42.650;23.248;2023-02-12T07:32:03;93449.63;;;-0.84;65.38
53041;BME280;39326;42.650;23.248;2023-02-12T07:34:29;93447.19;;;-0.94;66.12
53041;BME280;39326;42.650;23.248;2023-02-12T07:36:54;93455.25;;;-0.91;66.18
53041;BME280;39326;42.650;23.248;2023-02-12T07:39:20;93455.44;;;-0.74;65.19
53041;BME280;39326;42.650;23.248;2023-02-12T07:41:45;93455.44;;;-0.87;65.84
53041;BME280;39326;42.650;23.248;2023-02-12T07:44:11;93461.66;;;-0.69;64.89
53041;BME280;39326;42.650;23.248;2023-02-12T07:46:44;93466.13;;;-0.70;65.48
53041;BME280;39326;42.650;23.248;2023-02-12T07:49:14;93479.44;;;-0.66;65.20
53041;BME280;39326;42.650;23.248;2023-02-12T07:51:40;93475.75;;;-0.52;64.26
53041;BME280;39326;42.650;23.248;2023-02-12T07:54:06;93484.38;;;-0.65;65.00
53041;BME280;39326;42.650;23.248;2023-02-12T07:56:34;93492.25;;;-0.51;64.13
53041;BME280;39326;42.650;23.248;2023-02-12T07:59:05;93470.69;;;-0.48;64.40
53041;BME280;39326;42.650;23.248;2023-02-12T08:01:35;93484.09;;;-0.63;65.02
53041;BME280;39326;42.650;23.248;2023-02-12T08:04:04;93488.53;;;-0.64;65.11
53041;BME280;39326;42.650;23.248;2023-02-12T08:06:32;93485.16;;;-0.64;65.29
53041;BME280;39326;42.650;23.248;2023-02-12T08:09:00;93487.00;;;-0.51;64.44
53041;BME280;39326;42.650;23.248;2023-02-12T08:11:27;93493.72;;;-0.45;64.07
53041;BME280;39326;42.650;23.248;2023-02-12T08:13:53;93488.94;;;-0.43;64.07
53041;BME280;39326;42.650;23.248;2023-02-12T08:16:22;93488.16;;;-0.43;64.39
53041;BME280;39326;42.650;23.248;2023-02-12T08:18:48;93487.28;;;-0.66;65.81
53041;BME280;39326;42.650;23.248;2023-02-12T08:21:17;93495.56;;;-0.46;64.76
53041;BME280;39326;42.650;23.248;2023-02-12T08:23:43;93495.34;;;-0.63;65.88
53041;BME280;39326;42.650;23.248;2023-02-12T08:26:13;93500.41;;;-0.53;65.74
53041;BME280;39326;42.650;23.248;2023-02-12T08:28:45;93497.09;;;-0.58;65.68
53041;BME280;39326;42.650;23.248;2023-02-12T08:31:14;93500.66;;;-0.68;65.86
53041;BME280;39326;42.650;23.248;2023-02-12T08:33:40;93505.03;;;-0.63;65.77
53041;BME280;39326;42.650;23.248;2023-02-12T08:36:07;93496.41;;;-0.64;66.25
53041;BME280;39326;42.650;23.248;2023-02-12T08:38:34;93501.34;;;-0.49;65.48
53041;BME280;39326;42.650;23.248;2023-02-12T08:41:07;93503.19;;;-0.49;65.99
53041;BME280;39326;42.650;23.248;2023-02-12T08:43:33;93517.97;;;-0.39;65.13
53041;BME280;39326;42.650;23.248;2023-02-12T08:46:09;93517.19;;;-0.40;66.16
53041;BME280;39326;42.650;23.248;2023-02-12T08:48:36;93527.00;;;-0.46;65.78
53041;BME280;39326;42.650;23.248;2023-02-12T08:51:09;93534.63;;;-0.49;65.39
53041;BME280;39326;42.650;23.248;2023-02-12T08:53:36;93535.78;;;-0.55;65.92
53041;BME280;39326;42.650;23.248;2023-02-12T08:56:02;93528.69;;;-0.68;66.93
53041;BME280;39326;42.650;23.248;2023-02-12T08:58:28;93536.00;;;-0.52;65.92
53041;BME280;39326;42.650;23.248;2023-02-12T09:00:53;93533.78;;;-0.45;65.73
53041;BME280;39326;42.650;23.248;2023-02-12T09:03:19;93545.84;;;-0.76;68.18
53041;BME280;39326;42.650;23.248;2023-02-12T09:05:44;93537.81;;;-0.66;67.12
53041;BME280;39326;42.650;23.248;2023-02-12T09:08:10;93544.41;;;-0.68;67.57
53041;BME280;39326;42.650;23.248;2023-02-12T09:10:39;93550.81;;;-0.61;67.21
53041;BME280;39326;42.650;23.248;2023-02-12T09:13:09;93555.56;;;-0.63;67.97
53041;BME280;39326;42.650;23.248;2023-02-12T09:15:36;93556.78;;;-0.74;68.09
53041;BME280;39326;42.650;23.248;2023-02-12T09:18:02;93557.56;;;-0.74;68.21
53041;BME280;39326;42.650;23.248;2023-02-12T09:20:28;93564.47;;;-0.78;68.58
53041;BME280;39326;42.650;23.248;2023-02-12T09:22:54;93568.66;;;-0.63;68.08
53041;BME280;39326;42.650;23.248;2023-02-12T09:25:20;93566.53;;;-0.93;70.10
53041;BME280;39326;42.650;23.248;2023-02-12T09:27:45;93554.53;;;-0.81;68.41
53041;BME280;39326;42.650;23.248;2023-02-12T09:30:11;93567.72;;;-0.86;69.67
53041;BME280;39326;42.650;23.248;2023-02-12T09:32:37;93569.50;;;-0.67;68.80
53041;BME280;39326;42.650;23.248;2023-02-12T09:35:02;93562.13;;;-0.47;67.74
53041;BME280;39326;42.650;23.248;2023-02-12T09:37:28;93560.97;;;-0.40;67.40
53041;BME280;39326;42.650;23.248;2023-02-12T09:39:53;93558.88;;;-0.57;69.16
53041;BME280;39326;42.650;23.248;2023-02-12T09:42:30;93554.31;;;-0.65;69.38
53041;BME280;39326;42.650;23.248;2023-02-12T09:45:20;93569.88;;;-0.74;69.79
53041;BME280;39326;42.650;23.248;2023-02-12T09:47:55;93567.69;;;-0.67;69.54
53041;BME280;39326;42.650;23.248;2023-02-12T09:50:30;93568.81;;;-0.54;68.89
53041;BME280;39326;42.650;23.248;2023-02-12T09:52:58;93565.31;;;-0.50;68.93
53041;BME280;39326;42.650;23.248;2023-02-12T09:55:28;93570.06;;;-0.52;68.68
53041;BME280;39326;42.650;23.248;2023-02-12T09:57:54;93573.47;;;-0.84;71.33
53041;BME280;39326;42.650;23.248;2023-02-12T10:00:25;93578.69;;;-0.84;71.20
53041;BME280;39326;42.650;23.248;2023-02-12T10:03:03;93581.72;;;-0.77;70.67
53041;BME280;39326;42.650;23.248;2023-02-12T10:05:43;93578.13;;;-1.00;71.97
53041;BME280;39326;42.650;23.248;2023-02-12T10:13:58;93577.91;;;-0.84;72.50
53041;BME280;39326;42.650;23.248;2023-02-12T10:27:45;93566.91;;;-0.67;72.43
53041;BME280;39326;42.650;23.248;2023-02-12T10:32:46;93555.81;;;-0.46;71.83
53041;BME280;39326;42.650;23.248;2023-02-12T10:35:15;93564.00;;;-0.20;70.64
53041;BME280;39326;42.650;23.248;2023-02-12T10:40:24;93572.34;;;-0.18;70.21
53041;BME280;39326;42.650;23.248;2023-02-12T10:42:53;93562.16;;;-0.05;69.24
53041;BME280;39326;42.650;23.248;2023-02-12T10:45:39;93570.53;;;-0.03;69.52
53041;BME280;39326;42.650;23.248;2023-02-12T10:48:12;93569.94;;;-0.00;69.55
53041;BME280;39326;42.650;23.248;2023-02-12T10:53:32;93578.78;;;0.18;68.73
53041;BME280;39326;42.650;23.248;2023-02-12T10:58:35;93573.22;;;0.60;68.13
53041;BME280;39326;42.650;23.248;2023-02-12T11:01:01;93571.94;;;0.58;68.78
53041;BME280;39326;42.650;23.248;2023-02-12T11:03:32;93567.25;;;0.69;67.93
53041;BME280;39326;42.650;23.248;2023-02-12T11:06:14;93560.47;;;0.90;67.47
53041;BME280;39326;42.650;23.248;2023-02-12T11:08:41;93575.97;;;0.92;66.56
53041;BME280;39326;42.650;23.248;2023-02-12T11:14:17;93571.94;;;0.94;66.45
53041;BME280;39326;42.650;23.248;2023-02-12T11:16:58;93574.16;;;0.78;67.34
53041;BME280;39326;42.650;23.248;2023-02-12T11:19:29;93575.75;;;0.88;67.35
53041;BME280;39326;42.650;23.248;2023-02-12T11:22:14;93567.00;;;0.93;67.06
53041;BME280;39326;42.650;23.248;2023-02-12T11:24:44;93569.78;;;0.74;68.25
53041;BME280;39326;42.650;23.248;2023-02-12T11:29:36;93574.00;;;0.97;67.24
53041;BME280;39326;42.650;23.248;2023-02-12T11:32:04;93573.16;;;1.10;66.88
53041;BME280;39326;42.650;23.248;2023-02-12T11:34:32;93569.81;;;1.18;67.06
53041;BME280;39326;42.650;23.248;2023-02-12T11:36:59;93564.00;;;1.53;65.45
53041;BME280;39326;42.650;23.248;2023-02-12T11:39:29;93570.88;;;1.40;66.15
53041;BME280;39326;42.650;23.248;2023-02-12T11:42:04;93572.44;;;1.63;64.95
53041;BME280;39326;42.650;23.248;2023-02-12T11:44:36;93573.75;;;1.83;65.26
53041;BME280;39326;42.650;23.248;2023-02-12T11:47:05;93570.47;;;2.09;64.59
53041;BME280;39326;42.650;23.248;2023-02-12T11:52:24;93565.88;;;1.83;65.01
53041;BME280;39326;42.650;23.248;2023-02-12T11:54:53;93565.44;;;1.90;64.63
53041;BME280;39326;42.650;23.248;2023-02-12T12:00:32;93575.66;;;2.22;63.64
53041;BME280;39326;42.650;23.248;2023-02-12T12:03:25;93571.97;;;2.32;64.06
53041;BME280;39326;42.650;23.248;2023-02-12T12:06:23;93568.75;;;2.44;62.52
53041;BME280;39326;42.650;23.248;2023-02-12T12:20:02;93590.50;;;2.27;62.09
53041;BME280;39326;42.650;23.248;2023-02-12T12:23:03;93577.53;;;2.39;62.11
53041;BME280;39326;42.650;23.248;2023-02-12T12:25:51;93579.19;;;2.18;61.39
53041;BME280;39326;42.650;23.248;2023-02-12T12:28:31;93581.69;;;2.23;61.54
53041;BME280;39326;42.650;23.248;2023-02-12T12:31:11;93582.75;;;2.22;61.19
53041;BME280;39326;42.650;23.248;2023-02-12T12:33:50;93588.97;;;2.26;61.23
53041;BME280;39326;42.650;23.248;2023-02-12T12:52:59;93589.72;;;2.26;61.67
53041;BME280;39326;42.650;23.248;2023-02-12T13:03:59;93616.38;;;1.94;62.00
53041;BME280;39326;42.650;23.248;2023-02-12T13:12:33;93625.28;;;1.39;65.07
53041;BME280;39326;42.650;23.248;2023-02-12T13:17:50;93631.75;;;1.56;64.50
53041;BME280;39326;42.650;23.248;2023-02-12T13:20:33;93627.09;;;1.75;63.35
53041;BME280;39326;42.650;23.248;2023-02-12T13:23:14;93625.47;;;1.65;63.67
53041;BME280;39326;42.650;23.248;2023-02-12T13:28:14;93634.16;;;1.43;65.24
53041;BME280;39326;42.650;23.248;2023-02-12T13:30:48;93632.78;;;1.68;63.61
53041;BME280;39326;42.650;23.248;2023-02-12T13:33:24;93631.22;;;1.67;64.78
53041;BME280;39326;42.650;23.248;2023-02-12T13:35:54;93637.22;;;1.90;63.40
53041;BME280;39326;42.650;23.248;2023-02-12T13:38:28;93630.06;;;1.82;64.82
53041;BME280;39326;42.650;23.248;2023-02-12T13:40:59;93629.75;;;1.84;63.64
53041;BME280;39326;42.650;23.248;2023-02-12T13:46:54;93633.50;;;1.60;64.46
53041;BME280;39326;42.650;23.248;2023-02-12T13:49:48;93633.66;;;1.64;64.77
53041;BME280;39326;42.650;23.248;2023-02-12T13:52:48;93644.72;;;1.52;65.58
53041;BME280;39326;42.650;23.248;2023-02-12T13:57:42;93649.50;;;1.50;65.15
53041;BME280;39326;42.650;23.248;2023-02-12T14:03:11;93631.66;;;1.61;64.64
53041;BME280;39326;42.650;23.248;2023-02-12T14:05:37;93652.38;;;1.62;64.49
53041;BME280;39326;42.650;23.248;2023-02-12T14:08:04;93652.19;;;1.59;64.56
53041;BME280;39326;42.650;23.248;2023-02-12T14:10:39;93655.31;;;1.61;64.62
53041;BME280;39326;42.650;23.248;2023-02-12T14:13:18;93653.19;;;1.71;64.82
53041;BME280;39326;42.650;23.248;2023-02-12T14:15:48;93668.19;;;1.71;63.75
53041;BME280;39326;42.650;23.248;2023-02-12T14:18:34;93672.34;;;1.86;64.39
53041;BME280;39326;42.650;23.248;2023-02-12T14:23:42;93669.03;;;1.80;63.84
53041;BME280;39326;42.650;23.248;2023-02-12T14:33:45;93681.56;;;1.83;63.64
53041;BME280;39326;42.650;23.248;2023-02-12T14:47:02;93701.59;;;1.70;65.08
53041;BME280;39326;42.650;23.248;2023-02-12T14:49:34;93705.25;;;1.61;64.97
53041;BME280;39326;42.650;23.248;2023-02-12T14:52:05;93701.97;;;1.78;64.50
53041;BME280;39326;42.650;23.248;2023-02-12T14:54:40;93708.00;;;1.78;64.29
53041;BME280;39326;42.650;23.248;2023-02-12T15:00:00;93712.56;;;1.50;65.53
53041;BME280;39326;42.650;23.248;2023-02-12T15:02:31;93719.13;;;1.75;64.35
53041;BME280;39326;42.650;23.248;2023-02-12T15:05:04;93713.63;;;1.85;63.58
53041;BME280;39326;42.650;23.248;2023-02-12T15:07:45;93727.25;;;1.87;64.08
53041;BME280;39326;42.650;23.248;2023-02-12T15:10:16;93726.63;;;1.90;63.11
53041;BME280;39326;42.650;23.248;2023-02-12T15:13:12;93739.06;;;1.76;64.17
53041;BME280;39326;42.650;23.248;2023-02-12T15:18:37;93744.19;;;1.59;64.67
53041;BME280;39326;42.650;23.248;2023-02-12T15:23:45;93759.34;;;1.76;63.63
53041;BME280;39326;42.650;23.248;2023-02-12T15:26:19;93766.81;;;1.82;63.24
53041;BME280;39326;42.650;23.248;2023-02-12T15:28:49;93766.03;;;1.82;64.76
53041;BME280;39326;42.650;23.248;2023-02-12T15:31:18;93776.44;;;1.87;62.94
53041;BME280;39326;42.650;23.248;2023-02-12T15:33:48;93780.44;;;1.84;63.78
53041;BME280;39326;42.650;23.248;2023-02-12T15:36:18;93780.44;;;1.84;63.79
53041;BME280;39326;42.650;23.248;2023-02-12T15:38:48;93783.38;;;1.83;63.72
53041;BME280;39326;42.650;23.248;2023-02-12T15:41:39;93787.78;;;1.74;65.10
53041;BME280;39326;42.650;23.248;2023-02-12T15:44:28;93791.28;;;1.69;64.45